RXW3108 LIMJ-EGLL
Flight info
| Callsign | RXW3108 |
|---|---|
| Flight time | 1h 58m |
| Altitude | 36000 |
| Route | LAGEN Q712 TESTO DEVOX VOG DESIP PEPAG ABESI UTAVO ELMUR RIPUS DITON HOC LUL RLP ROTSI KOTUN NINAL ABNUR DIMAL ALESO |
| Aircraft | B738/M-SDE2E3FGHIRWXY/LB1 |
Departure
| Time | 2026-04-16 11:09 |
|---|---|
| Airport | Genoa Cristoforo Colombo Airport (LIMJ) |
Arrival
| Time | 2026-04-16 13:07 |
|---|---|
| Airport | London Heathrow Airport (EGLL) |
| Time | Latitude | Longitude | Altitude | Speed | Heading |
|---|---|---|---|---|---|
| 2026-04-16 11:09 | 44.33208 | 8.82149 | 4342 ft | 218 kts | 183° |
| 2026-04-16 11:09 | 44.31634 | 8.81944 | 4493 ft | 238 kts | 184° |
| 2026-04-16 11:09 | 44.29952 | 8.81736 | 4499 ft | 246 kts | 183° |
| 2026-04-16 11:09 | 44.28270 | 8.81551 | 4499 ft | 245 kts | 183° |
| 2026-04-16 11:10 | 44.26580 | 8.81385 | 4510 ft | 242 kts | 182° |
| 2026-04-16 11:10 | 44.24908 | 8.81235 | 4507 ft | 240 kts | 182° |
| 2026-04-16 11:10 | 44.23241 | 8.81095 | 4499 ft | 238 kts | 182° |
| 2026-04-16 11:10 | 44.21589 | 8.80964 | 4509 ft | 236 kts | 181° |
| 2026-04-16 11:11 | 44.19955 | 8.80839 | 4504 ft | 234 kts | 181° |
| 2026-04-16 11:11 | 44.18329 | 8.80718 | 4522 ft | 234 kts | 181° |
| 2026-04-16 11:11 | 44.16722 | 8.80600 | 4510 ft | 235 kts | 181° |
| 2026-04-16 11:11 | 44.15084 | 8.80480 | 4524 ft | 235 kts | 181° |
| 2026-04-16 11:12 | 44.13430 | 8.80355 | 4531 ft | 240 kts | 184° |
| 2026-04-16 11:12 | 44.12331 | 8.80001 | 4518 ft | 251 kts | 205° |
| 2026-04-16 11:12 | 44.10728 | 8.77717 | 4518 ft | 251 kts | 251° |
| 2026-04-16 11:12 | 44.10535 | 8.75373 | 4530 ft | 244 kts | 284° |
| 2026-04-16 11:13 | 44.11240 | 8.73279 | 4526 ft | 240 kts | 316° |
| 2026-04-16 11:13 | 44.12595 | 8.72012 | 4539 ft | 234 kts | 344° |
| 2026-04-16 11:13 | 44.13657 | 8.71734 | 4522 ft | 236 kts | 0° |
| 2026-04-16 11:13 | 44.15844 | 8.71913 | 4525 ft | 238 kts | 7° |
| 2026-04-16 11:14 | 44.17493 | 8.72151 | 4513 ft | 239 kts | 6° |
| 2026-04-16 11:14 | 44.19153 | 8.72368 | 4509 ft | 240 kts | 1° |
| 2026-04-16 11:14 | 44.20739 | 8.71757 | 4527 ft | 240 kts | 332° |
| 2026-04-16 11:14 | 44.21655 | 8.70883 | 4511 ft | 240 kts | 324° |
| 2026-04-16 11:15 | 44.22934 | 8.69404 | 4507 ft | 238 kts | 322° |
| 2026-04-16 11:15 | 44.24602 | 8.67391 | 4507 ft | 235 kts | 322° |
| 2026-04-16 11:15 | 44.25837 | 8.65901 | 4507 ft | 234 kts | 322° |
| 2026-04-16 11:15 | 44.27056 | 8.64442 | 4504 ft | 233 kts | 322° |
| 2026-04-16 11:16 | 44.28282 | 8.62982 | 4503 ft | 231 kts | 322° |
| 2026-04-16 11:16 | 44.29506 | 8.61530 | 4514 ft | 232 kts | 322° |
| 2026-04-16 11:16 | 44.30741 | 8.60068 | 4523 ft | 233 kts | 322° |
| 2026-04-16 11:16 | 44.31981 | 8.58600 | 4519 ft | 234 kts | 322° |
| 2026-04-16 11:17 | 44.32811 | 8.57619 | 4530 ft | 237 kts | 322° |
| 2026-04-16 11:17 | 44.34500 | 8.55622 | 4515 ft | 237 kts | 322° |
| 2026-04-16 11:17 | 44.35761 | 8.54132 | 4486 ft | 239 kts | 321° |
| 2026-04-16 11:17 | 44.37015 | 8.52617 | 4633 ft | 237 kts | 322° |
| 2026-04-16 11:18 | 44.38343 | 8.51267 | 5190 ft | 233 kts | 338° |
| 2026-04-16 11:18 | 44.39901 | 8.50863 | 5786 ft | 233 kts | 5° |
| 2026-04-16 11:18 | 44.41483 | 8.51432 | 6287 ft | 245 kts | 27° |
| 2026-04-16 11:18 | 44.42979 | 8.52652 | 6761 ft | 252 kts | 31° |
| 2026-04-16 11:19 | 44.44507 | 8.53934 | 7318 ft | 259 kts | 31° |
| 2026-04-16 11:19 | 44.46061 | 8.55232 | 7990 ft | 262 kts | 31° |
| 2026-04-16 11:19 | 44.47625 | 8.56533 | 8732 ft | 262 kts | 31° |
| 2026-04-16 11:19 | 44.48674 | 8.57407 | 9159 ft | 267 kts | 31° |
| 2026-04-16 11:20 | 44.50856 | 8.59216 | 9989 ft | 277 kts | 31° |
| 2026-04-16 11:20 | 44.51970 | 8.60137 | 10408 ft | 281 kts | 31° |
| 2026-04-16 11:20 | 44.53706 | 8.61575 | 10702 ft | 301 kts | 31° |
| 2026-04-16 11:20 | 44.56227 | 8.63660 | 10929 ft | 330 kts | 31° |
| 2026-04-16 11:21 | 44.58234 | 8.65320 | 11476 ft | 339 kts | 31° |
| 2026-04-16 11:21 | 44.60284 | 8.67018 | 12112 ft | 344 kts | 31° |
| 2026-04-16 11:21 | 44.61691 | 8.68174 | 12517 ft | 349 kts | 31° |
| 2026-04-16 11:21 | 44.63777 | 8.69889 | 13147 ft | 353 kts | 31° |
| 2026-04-16 11:22 | 44.65906 | 8.71639 | 13935 ft | 355 kts | 31° |
| 2026-04-16 11:22 | 44.68048 | 8.73401 | 14570 ft | 359 kts | 30° |
| 2026-04-16 11:22 | 44.70222 | 8.75196 | 15230 ft | 362 kts | 31° |
| 2026-04-16 11:22 | 44.72402 | 8.77002 | 15890 ft | 367 kts | 30° |
| 2026-04-16 11:23 | 44.74613 | 8.78831 | 16558 ft | 369 kts | 30° |
| 2026-04-16 11:23 | 44.76836 | 8.80674 | 17203 ft | 373 kts | 30° |
| 2026-04-16 11:23 | 44.79087 | 8.82541 | 17862 ft | 376 kts | 30° |
| 2026-04-16 11:23 | 44.81351 | 8.84422 | 18458 ft | 381 kts | 30° |
| 2026-04-16 11:24 | 44.83647 | 8.86331 | 18981 ft | 384 kts | 30° |
| 2026-04-16 11:24 | 44.85954 | 8.88252 | 19572 ft | 387 kts | 30° |
| 2026-04-16 11:24 | 44.88280 | 8.90189 | 20093 ft | 390 kts | 30° |
| 2026-04-16 11:24 | 44.90598 | 8.92122 | 20606 ft | 394 kts | 30° |
| 2026-04-16 11:25 | 44.92966 | 8.94098 | 21112 ft | 397 kts | 30° |
| 2026-04-16 11:25 | 44.95366 | 8.96091 | 21631 ft | 400 kts | 28° |
| 2026-04-16 11:25 | 44.97957 | 8.97519 | 22042 ft | 404 kts | 11° |
| 2026-04-16 11:25 | 45.00751 | 8.98189 | 22430 ft | 410 kts | 8° |
| 2026-04-16 11:26 | 45.03589 | 8.98782 | 22871 ft | 413 kts | 8° |
| 2026-04-16 11:26 | 45.06439 | 8.99368 | 23043 ft | 415 kts | 8° |
| 2026-04-16 11:26 | 45.09294 | 8.99970 | 23051 ft | 414 kts | 8° |
| 2026-04-16 11:26 | 45.12143 | 9.00588 | 23047 ft | 414 kts | 8° |
| 2026-04-16 11:27 | 45.14986 | 9.01218 | 23056 ft | 414 kts | 8° |
| 2026-04-16 11:27 | 45.17797 | 9.01851 | 23057 ft | 414 kts | 8° |
| 2026-04-16 11:27 | 45.20643 | 9.02497 | 23060 ft | 414 kts | 9° |
| 2026-04-16 11:27 | 45.23494 | 9.03147 | 23056 ft | 414 kts | 9° |
| 2026-04-16 11:28 | 45.26344 | 9.03798 | 23046 ft | 414 kts | 9° |
| 2026-04-16 11:28 | 45.29185 | 9.04447 | 23052 ft | 413 kts | 9° |
| 2026-04-16 11:28 | 45.32020 | 9.05095 | 23054 ft | 413 kts | 9° |
| 2026-04-16 11:28 | 45.34865 | 9.05746 | 23048 ft | 412 kts | 9° |
| 2026-04-16 11:29 | 45.37688 | 9.06392 | 23054 ft | 411 kts | 9° |
| 2026-04-16 11:29 | 45.40514 | 9.07040 | 23056 ft | 410 kts | 9° |
| 2026-04-16 11:29 | 45.43326 | 9.07685 | 23055 ft | 409 kts | 9° |
| 2026-04-16 11:29 | 45.46101 | 9.08322 | 23052 ft | 409 kts | 9° |
| 2026-04-16 11:30 | 45.48910 | 9.08968 | 23054 ft | 408 kts | 9° |
| 2026-04-16 11:30 | 45.51723 | 9.09615 | 23091 ft | 412 kts | 9° |
| 2026-04-16 11:30 | 45.54573 | 9.10272 | 23498 ft | 415 kts | 9° |
| 2026-04-16 11:30 | 45.57420 | 9.10928 | 24041 ft | 414 kts | 9° |
| 2026-04-16 11:31 | 45.60268 | 9.11585 | 24515 ft | 414 kts | 9° |
| 2026-04-16 11:31 | 45.63121 | 9.12218 | 24914 ft | 416 kts | 6° |
| 2026-04-16 11:31 | 45.66024 | 9.12422 | 25295 ft | 418 kts | 358° |
| 2026-04-16 11:31 | 45.68919 | 9.12030 | 25697 ft | 419 kts | 353° |
| 2026-04-16 11:32 | 45.71824 | 9.11528 | 26074 ft | 421 kts | 353° |
| 2026-04-16 11:32 | 45.74738 | 9.11014 | 26435 ft | 423 kts | 353° |
| 2026-04-16 11:32 | 45.77664 | 9.10509 | 26810 ft | 424 kts | 353° |
| 2026-04-16 11:32 | 45.80570 | 9.10023 | 27156 ft | 426 kts | 353° |
| 2026-04-16 11:33 | 45.83558 | 9.09533 | 27484 ft | 428 kts | 354° |
| 2026-04-16 11:33 | 45.86484 | 9.09061 | 27815 ft | 430 kts | 354° |
| 2026-04-16 11:33 | 45.89464 | 9.08582 | 28120 ft | 432 kts | 354° |
| 2026-04-16 11:33 | 45.92452 | 9.08101 | 28466 ft | 433 kts | 354° |
| 2026-04-16 11:34 | 45.95453 | 9.07616 | 28783 ft | 434 kts | 354° |
| 2026-04-16 11:34 | 45.98463 | 9.07128 | 29119 ft | 436 kts | 354° |
| 2026-04-16 11:34 | 46.01489 | 9.06637 | 29448 ft | 437 kts | 354° |
| 2026-04-16 11:34 | 46.04515 | 9.06145 | 29865 ft | 436 kts | 353° |
| 2026-04-16 11:35 | 46.07529 | 9.05654 | 30357 ft | 434 kts | 353° |
| 2026-04-16 11:35 | 46.10515 | 9.05168 | 30859 ft | 429 kts | 353° |
| 2026-04-16 11:35 | 46.13435 | 9.04692 | 31239 ft | 427 kts | 354° |
| 2026-04-16 11:35 | 46.16403 | 9.04210 | 31515 ft | 428 kts | 354° |
| 2026-04-16 11:36 | 46.19378 | 9.03778 | 31818 ft | 429 kts | 354° |
| 2026-04-16 11:36 | 46.22347 | 9.03389 | 32247 ft | 426 kts | 355° |
| 2026-04-16 11:36 | 46.25288 | 9.03013 | 32667 ft | 423 kts | 355° |
| 2026-04-16 11:36 | 46.28226 | 9.02633 | 32967 ft | 423 kts | 354° |
| 2026-04-16 11:37 | 46.31122 | 9.02251 | 33218 ft | 424 kts | 355° |
| 2026-04-16 11:37 | 46.34095 | 9.01855 | 33555 ft | 423 kts | 354° |
| 2026-04-16 11:37 | 46.36980 | 9.01467 | 33932 ft | 420 kts | 354° |
| 2026-04-16 11:37 | 46.39881 | 9.01076 | 34276 ft | 418 kts | 354° |
| 2026-04-16 11:38 | 46.42780 | 9.00685 | 34489 ft | 419 kts | 354° |
| 2026-04-16 11:38 | 46.45687 | 9.00294 | 34674 ft | 420 kts | 354° |
| 2026-04-16 11:38 | 46.48590 | 8.99904 | 34957 ft | 419 kts | 354° |
| 2026-04-16 11:38 | 46.51487 | 8.99514 | 35238 ft | 418 kts | 354° |
| 2026-04-16 11:39 | 46.54388 | 8.99124 | 35450 ft | 418 kts | 354° |
| 2026-04-16 11:39 | 46.57290 | 8.98733 | 35639 ft | 419 kts | 354° |
| 2026-04-16 11:39 | 46.60198 | 8.98340 | 35820 ft | 419 kts | 354° |
| 2026-04-16 11:39 | 46.63098 | 8.97948 | 36022 ft | 419 kts | 353° |
| 2026-04-16 11:40 | 46.66017 | 8.97552 | 36119 ft | 423 kts | 352° |
| 2026-04-16 11:40 | 46.68953 | 8.97153 | 36225 ft | 425 kts | 352° |
| 2026-04-16 11:40 | 46.71915 | 8.96750 | 36226 ft | 429 kts | 352° |
| 2026-04-16 11:41 | 46.77892 | 8.95937 | 36248 ft | 432 kts | 352° |
| 2026-04-16 11:41 | 46.83859 | 8.95126 | 36244 ft | 433 kts | 352° |
| 2026-04-16 11:42 | 46.89857 | 8.94308 | 36255 ft | 432 kts | 352° |
| 2026-04-16 11:42 | 46.95842 | 8.93489 | 36257 ft | 431 kts | 352° |
| 2026-04-16 11:43 | 47.01810 | 8.92671 | 36265 ft | 429 kts | 352° |
| 2026-04-16 11:43 | 47.07723 | 8.91858 | 36260 ft | 428 kts | 352° |
| 2026-04-16 11:44 | 47.13356 | 8.89601 | 36277 ft | 419 kts | 326° |
| 2026-04-16 11:44 | 47.15628 | 8.86939 | 36271 ft | 416 kts | 314° |
| 2026-04-16 11:44 | 47.17427 | 8.83622 | 36243 ft | 417 kts | 300° |
| 2026-04-16 11:45 | 47.19607 | 8.75746 | 36326 ft | 416 kts | 289° |
| 2026-04-16 11:45 | 47.21493 | 8.67695 | 36296 ft | 415 kts | 291° |
| 2026-04-16 11:46 | 47.23495 | 8.59730 | 36280 ft | 415 kts | 293° |
| 2026-04-16 11:46 | 47.25531 | 8.51837 | 36302 ft | 416 kts | 292° |
| 2026-04-16 11:47 | 47.27568 | 8.43853 | 36270 ft | 417 kts | 292° |
| 2026-04-16 11:47 | 47.29595 | 8.35849 | 36266 ft | 418 kts | 292° |
| 2026-04-16 11:48 | 47.31607 | 8.27801 | 36264 ft | 418 kts | 291° |
| 2026-04-16 11:48 | 47.33593 | 8.19805 | 36261 ft | 418 kts | 291° |
| 2026-04-16 11:49 | 47.35589 | 8.11745 | 36261 ft | 417 kts | 291° |
| 2026-04-16 11:49 | 47.37569 | 8.03723 | 36257 ft | 417 kts | 291° |
| 2026-04-16 11:50 | 47.39551 | 7.95665 | 36260 ft | 416 kts | 291° |
| 2026-04-16 11:50 | 47.41521 | 7.87631 | 36247 ft | 415 kts | 291° |
| 2026-04-16 11:51 | 47.43477 | 7.79622 | 36244 ft | 414 kts | 291° |
| 2026-04-16 11:51 | 47.45426 | 7.71618 | 36248 ft | 413 kts | 291° |
| 2026-04-16 11:52 | 47.47219 | 7.63564 | 36248 ft | 413 kts | 287° |
| 2026-04-16 11:52 | 47.48603 | 7.55311 | 36242 ft | 413 kts | 285° |
| 2026-04-16 11:53 | 47.49942 | 7.47058 | 36240 ft | 412 kts | 285° |
| 2026-04-16 11:53 | 47.51284 | 7.38875 | 36244 ft | 412 kts | 286° |
| 2026-04-16 11:54 | 47.52642 | 7.30642 | 36242 ft | 412 kts | 286° |
| 2026-04-16 11:54 | 47.53999 | 7.22399 | 36246 ft | 412 kts | 285° |
| 2026-04-16 11:55 | 47.55353 | 7.14138 | 36249 ft | 413 kts | 285° |
| 2026-04-16 11:55 | 47.56702 | 7.05862 | 36247 ft | 413 kts | 285° |
| 2026-04-16 11:56 | 47.58046 | 6.97574 | 36248 ft | 414 kts | 285° |
| 2026-04-16 11:56 | 47.59379 | 6.89318 | 36242 ft | 414 kts | 285° |
| 2026-04-16 11:57 | 47.60713 | 6.81011 | 36239 ft | 415 kts | 285° |
| 2026-04-16 11:57 | 47.62042 | 6.72694 | 36240 ft | 414 kts | 285° |
| 2026-04-16 11:58 | 47.63363 | 6.64387 | 36246 ft | 414 kts | 285° |
| 2026-04-16 11:58 | 47.64677 | 6.56078 | 36245 ft | 413 kts | 285° |
| 2026-04-16 11:59 | 47.65763 | 6.49181 | 36248 ft | 412 kts | 285° |
| 2026-04-16 11:59 | 47.67272 | 6.39550 | 36248 ft | 411 kts | 285° |
| 2026-04-16 12:00 | 47.68561 | 6.31287 | 36255 ft | 411 kts | 285° |
| 2026-04-16 12:00 | 47.70121 | 6.23159 | 36260 ft | 409 kts | 289° |
| 2026-04-16 12:01 | 47.71867 | 6.15111 | 36251 ft | 409 kts | 289° |
| 2026-04-16 12:01 | 47.73600 | 6.07070 | 36258 ft | 409 kts | 289° |
| 2026-04-16 12:02 | 47.75873 | 5.96341 | 36262 ft | 409 kts | 289° |
| 2026-04-16 12:02 | 47.77843 | 5.86954 | 36249 ft | 409 kts | 289° |
| 2026-04-16 12:03 | 47.79531 | 5.78873 | 36257 ft | 409 kts | 289° |
| 2026-04-16 12:03 | 47.81127 | 5.71203 | 36264 ft | 409 kts | 289° |
| 2026-04-16 12:04 | 47.82804 | 5.63113 | 36258 ft | 410 kts | 289° |
| 2026-04-16 12:04 | 47.84479 | 5.55002 | 36257 ft | 410 kts | 289° |
| 2026-04-16 12:05 | 47.86137 | 5.46935 | 36252 ft | 409 kts | 289° |
| 2026-04-16 12:05 | 47.87799 | 5.38824 | 36258 ft | 409 kts | 289° |
| 2026-04-16 12:06 | 47.89454 | 5.30721 | 36252 ft | 409 kts | 290° |
| 2026-04-16 12:06 | 47.91921 | 5.23161 | 36253 ft | 406 kts | 304° |
| 2026-04-16 12:07 | 47.95531 | 5.16691 | 36252 ft | 405 kts | 312° |
| 2026-04-16 12:07 | 47.99348 | 5.10496 | 36258 ft | 405 kts | 312° |
| 2026-04-16 12:08 | 48.03149 | 5.04276 | 36261 ft | 405 kts | 311° |
| 2026-04-16 12:08 | 48.06273 | 4.99118 | 36262 ft | 405 kts | 311° |
| 2026-04-16 12:09 | 48.10665 | 4.91832 | 36257 ft | 405 kts | 311° |
| 2026-04-16 12:09 | 48.14429 | 4.85569 | 36262 ft | 405 kts | 311° |
| 2026-04-16 12:10 | 48.18201 | 4.79279 | 36267 ft | 405 kts | 311° |
| 2026-04-16 12:10 | 48.21961 | 4.72994 | 36263 ft | 404 kts | 311° |
| 2026-04-16 12:11 | 48.25689 | 4.66751 | 36261 ft | 404 kts | 311° |
| 2026-04-16 12:12 | 48.30454 | 4.58745 | 36263 ft | 404 kts | 310° |
| 2026-04-16 12:12 | 48.36894 | 4.47887 | 36263 ft | 403 kts | 310° |
| 2026-04-16 12:13 | 48.40620 | 4.41584 | 36265 ft | 403 kts | 310° |
| 2026-04-16 12:13 | 48.44339 | 4.35276 | 36263 ft | 402 kts | 310° |
| 2026-04-16 12:14 | 48.48025 | 4.29010 | 36264 ft | 402 kts | 310° |
| 2026-04-16 12:14 | 48.51735 | 4.22688 | 36265 ft | 401 kts | 310° |
| 2026-04-16 12:15 | 48.55438 | 4.16362 | 36267 ft | 401 kts | 310° |
| 2026-04-16 12:15 | 48.59107 | 4.10081 | 36264 ft | 401 kts | 310° |
| 2026-04-16 12:16 | 48.62790 | 4.03759 | 36263 ft | 401 kts | 310° |
| 2026-04-16 12:16 | 48.66476 | 3.97416 | 36267 ft | 401 kts | 309° |
| 2026-04-16 12:17 | 48.68940 | 3.93169 | 36262 ft | 401 kts | 309° |
| 2026-04-16 12:17 | 48.73741 | 3.85088 | 36262 ft | 402 kts | 313° |
| 2026-04-16 12:18 | 48.77704 | 3.79186 | 36259 ft | 402 kts | 313° |
| 2026-04-16 12:18 | 48.81724 | 3.73277 | 36260 ft | 402 kts | 313° |
| 2026-04-16 12:19 | 48.85729 | 3.67339 | 36255 ft | 402 kts | 313° |
| 2026-04-16 12:19 | 48.89719 | 3.61382 | 36257 ft | 402 kts | 313° |
| 2026-04-16 12:20 | 48.93674 | 3.55454 | 36258 ft | 402 kts | 313° |
| 2026-04-16 12:20 | 48.97652 | 3.49475 | 36256 ft | 402 kts | 313° |
| 2026-04-16 12:21 | 49.01623 | 3.43492 | 36259 ft | 402 kts | 312° |
| 2026-04-16 12:21 | 49.05600 | 3.37487 | 36251 ft | 402 kts | 312° |
| 2026-04-16 12:22 | 49.09566 | 3.31483 | 36258 ft | 402 kts | 312° |
| 2026-04-16 12:22 | 49.13537 | 3.25458 | 36251 ft | 402 kts | 312° |
| 2026-04-16 12:23 | 49.16835 | 3.20444 | 36248 ft | 402 kts | 312° |
| 2026-04-16 12:23 | 49.21465 | 3.13387 | 36252 ft | 402 kts | 312° |
| 2026-04-16 12:24 | 49.25396 | 3.07378 | 36250 ft | 402 kts | 312° |
| 2026-04-16 12:24 | 49.29352 | 3.01318 | 36246 ft | 402 kts | 311° |
| 2026-04-16 12:25 | 49.33304 | 2.95250 | 36246 ft | 402 kts | 311° |
| 2026-04-16 12:26 | 49.44693 | 2.77679 | 36246 ft | 401 kts | 311° |
| 2026-04-16 12:27 | 49.48624 | 2.71585 | 36242 ft | 401 kts | 311° |
| 2026-04-16 12:27 | 49.52549 | 2.65486 | 36243 ft | 401 kts | 311° |
| 2026-04-16 12:28 | 49.56474 | 2.59372 | 36246 ft | 401 kts | 311° |
| 2026-04-16 12:28 | 49.60386 | 2.53309 | 36243 ft | 402 kts | 313° |
| 2026-04-16 12:29 | 49.64796 | 2.47934 | 36247 ft | 405 kts | 318° |
| 2026-04-16 12:29 | 49.69309 | 2.42710 | 36246 ft | 405 kts | 318° |
| 2026-04-16 12:30 | 49.73804 | 2.37466 | 36238 ft | 405 kts | 318° |
| 2026-04-16 12:30 | 49.78288 | 2.32191 | 36240 ft | 405 kts | 317° |
| 2026-04-16 12:31 | 49.82771 | 2.26896 | 36238 ft | 405 kts | 317° |
| 2026-04-16 12:31 | 49.87253 | 2.21587 | 36239 ft | 405 kts | 317° |
| 2026-04-16 12:32 | 49.91706 | 2.16300 | 36242 ft | 405 kts | 317° |
| 2026-04-16 12:32 | 49.96186 | 2.10970 | 36231 ft | 406 kts | 317° |
| 2026-04-16 12:33 | 50.00671 | 2.05620 | 36240 ft | 406 kts | 317° |
| 2026-04-16 12:33 | 50.05146 | 2.00268 | 36243 ft | 406 kts | 317° |
| 2026-04-16 12:34 | 50.09617 | 1.94909 | 36239 ft | 405 kts | 317° |
| 2026-04-16 12:34 | 50.14085 | 1.89542 | 36235 ft | 405 kts | 317° |
| 2026-04-16 12:35 | 50.18413 | 1.84036 | 36235 ft | 401 kts | 311° |
| 2026-04-16 12:35 | 50.22325 | 1.78076 | 35735 ft | 387 kts | 310° |
| 2026-04-16 12:36 | 50.24243 | 1.75121 | 35148 ft | 388 kts | 310° |
| 2026-04-16 12:36 | 50.26163 | 1.72166 | 34650 ft | 386 kts | 310° |
| 2026-04-16 12:36 | 50.28072 | 1.69235 | 34259 ft | 381 kts | 310° |
| 2026-04-16 12:36 | 50.29950 | 1.66361 | 33701 ft | 375 kts | 310° |
| 2026-04-16 12:37 | 50.31810 | 1.63510 | 33035 ft | 373 kts | 310° |
| 2026-04-16 12:37 | 50.33655 | 1.60680 | 32568 ft | 367 kts | 310° |
| 2026-04-16 12:37 | 50.35439 | 1.57947 | 32131 ft | 360 kts | 310° |
| 2026-04-16 12:37 | 50.37221 | 1.55209 | 31734 ft | 358 kts | 310° |
| 2026-04-16 12:38 | 50.39007 | 1.52457 | 31354 ft | 363 kts | 310° |
| 2026-04-16 12:38 | 50.41174 | 1.49114 | 30881 ft | 367 kts | 311° |
| 2026-04-16 12:38 | 50.42629 | 1.46874 | 30552 ft | 364 kts | 311° |
| 2026-04-16 12:38 | 50.44434 | 1.44091 | 30126 ft | 361 kts | 311° |
| 2026-04-16 12:39 | 50.46222 | 1.41333 | 29676 ft | 357 kts | 311° |
| 2026-04-16 12:39 | 50.47986 | 1.38606 | 29287 ft | 354 kts | 311° |
| 2026-04-16 12:39 | 50.49735 | 1.35884 | 29072 ft | 355 kts | 310° |
| 2026-04-16 12:39 | 50.51424 | 1.33066 | 29039 ft | 349 kts | 308° |
| 2026-04-16 12:40 | 50.52999 | 1.30359 | 29020 ft | 332 kts | 308° |
| 2026-04-16 12:40 | 50.54528 | 1.27734 | 28792 ft | 322 kts | 308° |
| 2026-04-16 12:40 | 50.56064 | 1.25100 | 27669 ft | 335 kts | 308° |
| 2026-04-16 12:40 | 50.57663 | 1.22372 | 27196 ft | 333 kts | 308° |
| 2026-04-16 12:41 | 50.59247 | 1.19797 | 27164 ft | 324 kts | 310° |
| 2026-04-16 12:41 | 50.60826 | 1.17321 | 27112 ft | 316 kts | 310° |
| 2026-04-16 12:41 | 50.62384 | 1.14891 | 26541 ft | 318 kts | 310° |
| 2026-04-16 12:41 | 50.63986 | 1.12375 | 25548 ft | 333 kts | 310° |
| 2026-04-16 12:42 | 50.65603 | 1.09835 | 25294 ft | 327 kts | 310° |
| 2026-04-16 12:42 | 50.67236 | 1.07257 | 24939 ft | 337 kts | 310° |
| 2026-04-16 12:42 | 50.68887 | 1.04641 | 24583 ft | 345 kts | 310° |
| 2026-04-16 12:42 | 50.70590 | 1.01942 | 24189 ft | 348 kts | 310° |
| 2026-04-16 12:43 | 50.72297 | 0.99235 | 23809 ft | 346 kts | 310° |
| 2026-04-16 12:43 | 50.73990 | 0.96548 | 23367 ft | 345 kts | 310° |
| 2026-04-16 12:43 | 50.75681 | 0.93861 | 22958 ft | 343 kts | 310° |
| 2026-04-16 12:43 | 50.77354 | 0.91197 | 22570 ft | 340 kts | 310° |
| 2026-04-16 12:44 | 50.78453 | 0.89444 | 22319 ft | 339 kts | 310° |
| 2026-04-16 12:44 | 50.82370 | 0.83187 | 21444 ft | 334 kts | 310° |
| 2026-04-16 12:44 | 50.84000 | 0.80580 | 21087 ft | 333 kts | 310° |
| 2026-04-16 12:45 | 50.85602 | 0.78014 | 20770 ft | 332 kts | 310° |
| 2026-04-16 12:45 | 50.87230 | 0.75402 | 20731 ft | 329 kts | 310° |
| 2026-04-16 12:45 | 50.88805 | 0.72879 | 20704 ft | 315 kts | 310° |
| 2026-04-16 12:45 | 50.90308 | 0.70469 | 20688 ft | 299 kts | 310° |
| 2026-04-16 12:46 | 50.91731 | 0.68184 | 20693 ft | 283 kts | 309° |
| 2026-04-16 12:46 | 50.93074 | 0.66023 | 20691 ft | 268 kts | 309° |
| 2026-04-16 12:46 | 50.94350 | 0.63969 | 20685 ft | 254 kts | 309° |
| 2026-04-16 12:46 | 50.95554 | 0.62025 | 20703 ft | 249 kts | 309° |
| 2026-04-16 12:47 | 50.96796 | 0.60011 | 20725 ft | 261 kts | 309° |
| 2026-04-16 12:47 | 50.98086 | 0.57918 | 20512 ft | 268 kts | 309° |
| 2026-04-16 12:47 | 50.99397 | 0.55796 | 20153 ft | 273 kts | 309° |
| 2026-04-16 12:47 | 51.00768 | 0.53571 | 19266 ft | 292 kts | 309° |
| 2026-04-16 12:48 | 51.02235 | 0.51191 | 18117 ft | 312 kts | 310° |
| 2026-04-16 12:48 | 51.03792 | 0.48667 | 16878 ft | 328 kts | 310° |
| 2026-04-16 12:48 | 51.05404 | 0.46056 | 15999 ft | 331 kts | 311° |
| 2026-04-16 12:48 | 51.07013 | 0.43460 | 15340 ft | 328 kts | 311° |
| 2026-04-16 12:49 | 51.08642 | 0.40945 | 14719 ft | 324 kts | 313° |
| 2026-04-16 12:49 | 51.10274 | 0.38476 | 14136 ft | 325 kts | 313° |
| 2026-04-16 12:49 | 51.11917 | 0.35991 | 13505 ft | 329 kts | 313° |
| 2026-04-16 12:49 | 51.13589 | 0.33450 | 12744 ft | 331 kts | 313° |
| 2026-04-16 12:50 | 51.15241 | 0.30935 | 12178 ft | 323 kts | 313° |
| 2026-04-16 12:50 | 51.16843 | 0.28490 | 11684 ft | 314 kts | 313° |
| 2026-04-16 12:50 | 51.18399 | 0.26108 | 11225 ft | 307 kts | 313° |
| 2026-04-16 12:50 | 51.19918 | 0.23779 | 10794 ft | 299 kts | 313° |
| 2026-04-16 12:51 | 51.21403 | 0.21500 | 10381 ft | 293 kts | 312° |
| 2026-04-16 12:51 | 51.22858 | 0.19266 | 10267 ft | 288 kts | 312° |
| 2026-04-16 12:51 | 51.24256 | 0.17116 | 10098 ft | 273 kts | 312° |
| 2026-04-16 12:51 | 51.25607 | 0.15037 | 9515 ft | 274 kts | 312° |
| 2026-04-16 12:52 | 51.26973 | 0.12928 | 9026 ft | 272 kts | 312° |
| 2026-04-16 12:52 | 51.28322 | 0.10849 | 8601 ft | 268 kts | 312° |
| 2026-04-16 12:52 | 51.29654 | 0.08794 | 8176 ft | 264 kts | 312° |
| 2026-04-16 12:52 | 51.30967 | 0.06767 | 7783 ft | 261 kts | 312° |
| 2026-04-16 12:53 | 51.32263 | 0.04766 | 7392 ft | 257 kts | 312° |
| 2026-04-16 12:53 | 51.33239 | 0.02520 | 7157 ft | 238 kts | 281° |
| 2026-04-16 12:53 | 51.33349 | -0.00013 | 7020 ft | 223 kts | 268° |
| 2026-04-16 12:53 | 51.33351 | -0.02438 | 6863 ft | 213 kts | 269° |
| 2026-04-16 12:54 | 51.33368 | -0.04735 | 6645 ft | 202 kts | 269° |
| 2026-04-16 12:54 | 51.33396 | -0.06894 | 6490 ft | 193 kts | 269° |
| 2026-04-16 12:54 | 51.33435 | -0.09028 | 6381 ft | 191 kts | 270° |
| 2026-04-16 12:54 | 51.33479 | -0.11112 | 6252 ft | 184 kts | 270° |
| 2026-04-16 12:55 | 51.33525 | -0.13112 | 6112 ft | 176 kts | 270° |
| 2026-04-16 12:55 | 51.33571 | -0.15052 | 6007 ft | 175 kts | 270° |
| 2026-04-16 12:55 | 51.33617 | -0.16989 | 5911 ft | 174 kts | 270° |
| 2026-04-16 12:55 | 51.33664 | -0.18927 | 5788 ft | 175 kts | 270° |
| 2026-04-16 12:56 | 51.33727 | -0.20864 | 5732 ft | 175 kts | 277° |
| 2026-04-16 12:56 | 51.34305 | -0.22568 | 5645 ft | 182 kts | 315° |
| 2026-04-16 12:56 | 51.35493 | -0.23347 | 5583 ft | 193 kts | 353° |
| 2026-04-16 12:56 | 51.36778 | -0.22736 | 5454 ft | 200 kts | 37° |
| 2026-04-16 12:57 | 51.37480 | -0.20881 | 5351 ft | 199 kts | 86° |
| 2026-04-16 12:57 | 51.37446 | -0.18693 | 5310 ft | 201 kts | 95° |
| 2026-04-16 12:57 | 51.37394 | -0.16418 | 5190 ft | 206 kts | 94° |
| 2026-04-16 12:57 | 51.37354 | -0.14131 | 5056 ft | 203 kts | 94° |
| 2026-04-16 12:58 | 51.37318 | -0.11893 | 4914 ft | 199 kts | 94° |
| 2026-04-16 12:58 | 51.37283 | -0.09716 | 4801 ft | 193 kts | 94° |
| 2026-04-16 12:58 | 51.37249 | -0.07601 | 4685 ft | 193 kts | 94° |
| 2026-04-16 12:58 | 51.37365 | -0.05423 | 4584 ft | 196 kts | 77° |
| 2026-04-16 12:59 | 51.37650 | -0.04045 | 4564 ft | 199 kts | 66° |
| 2026-04-16 12:59 | 51.38694 | -0.01611 | 4366 ft | 200 kts | 42° |
| 2026-04-16 12:59 | 51.39793 | -0.00328 | 4254 ft | 192 kts | 24° |
| 2026-04-16 13:00 | 51.42313 | 0.00529 | 4030 ft | 184 kts | 351° |
| 2026-04-16 13:00 | 51.43147 | 0.00334 | 3977 ft | 182 kts | 340° |
| 2026-04-16 13:00 | 51.44682 | -0.00711 | 3863 ft | 178 kts | 321° |
| 2026-04-16 13:00 | 51.45615 | -0.01967 | 3750 ft | 173 kts | 306° |
| 2026-04-16 13:01 | 51.46099 | -0.02969 | 3684 ft | 170 kts | 297° |
| 2026-04-16 13:01 | 51.46714 | -0.05261 | 3568 ft | 167 kts | 282° |
| 2026-04-16 13:01 | 51.46916 | -0.07049 | 3466 ft | 164 kts | 268° |
| 2026-04-16 13:01 | 51.46899 | -0.08280 | 3415 ft | 163 kts | 264° |
| 2026-04-16 13:02 | 51.46805 | -0.10694 | 3293 ft | 164 kts | 264° |
| 2026-04-16 13:02 | 51.46729 | -0.12510 | 3184 ft | 161 kts | 263° |
| 2026-04-16 13:02 | 51.46652 | -0.14302 | 3076 ft | 161 kts | 263° |
| 2026-04-16 13:02 | 51.46599 | -0.15505 | 3026 ft | 164 kts | 262° |
| 2026-04-16 13:03 | 51.46600 | -0.17959 | 2996 ft | 165 kts | 274° |
| 2026-04-16 13:03 | 51.46687 | -0.19774 | 2958 ft | 160 kts | 268° |
| 2026-04-16 13:03 | 51.46691 | -0.20951 | 2842 ft | 161 kts | 267° |
| 2026-04-16 13:03 | 51.46681 | -0.22748 | 2658 ft | 161 kts | 265° |
| 2026-04-16 13:04 | 51.46661 | -0.25167 | 2353 ft | 163 kts | 265° |
| 2026-04-16 13:04 | 51.46646 | -0.26983 | 2149 ft | 163 kts | 266° |
| 2026-04-16 13:04 | 51.46630 | -0.28761 | 1934 ft | 157 kts | 266° |
| 2026-04-16 13:04 | 51.46616 | -0.30443 | 1711 ft | 150 kts | 266° |
| 2026-04-16 13:05 | 51.46596 | -0.32088 | 1539 ft | 145 kts | 266° |
| 2026-04-16 13:05 | 51.46587 | -0.33712 | 1313 ft | 144 kts | 265° |
| 2026-04-16 13:05 | 51.46581 | -0.34774 | 1174 ft | 139 kts | 265° |
| 2026-04-16 13:05 | 51.46568 | -0.36316 | 1008 ft | 139 kts | 265° |
| 2026-04-16 13:06 | 51.46556 | -0.37837 | 805 ft | 137 kts | 266° |
| 2026-04-16 13:06 | 51.46544 | -0.39380 | 627 ft | 138 kts | 265° |
| 2026-04-16 13:06 | 51.46526 | -0.40916 | 438 ft | 140 kts | 265° |
| 2026-04-16 13:06 | 51.46510 | -0.42474 | 246 ft | 138 kts | 265° |
| 2026-04-16 13:07 | 51.46501 | -0.43867 | 106 ft | 111 kts | 266° |
| 2026-04-16 13:07 | 51.46487 | -0.44928 | 92 ft | 81 kts | 268° |
| 2026-04-16 13:07 | 51.46490 | -0.45430 | 83 ft | 16 kts | 269° |
| 2026-04-16 13:07 | 51.46472 | -0.45566 | 83 ft | 10 kts | 271° |
| 2026-04-16 13:08 | 51.46482 | -0.45735 | 81 ft | 18 kts | 290° |
| 2026-04-16 13:08 | 51.46589 | -0.45884 | 83 ft | 16 kts | 324° |
| 2026-04-16 13:08 | 51.46625 | -0.45924 | 80 ft | 0 kts | 322° |
| 2026-04-16 13:11 | 51.46627 | -0.45927 | 80 ft | 4 kts | 322° |
| 2026-04-16 13:11 | 51.46708 | -0.45981 | 72 ft | 18 kts | 358° |
| 2026-04-16 13:11 | 51.46747 | -0.45817 | 75 ft | 17 kts | 91° |
| 2026-04-16 13:11 | 51.46748 | -0.45627 | 82 ft | 17 kts | 89° |
| 2026-04-16 13:12 | 51.46752 | -0.45444 | 89 ft | 16 kts | 86° |
| 2026-04-16 13:12 | 51.46758 | -0.45269 | 94 ft | 13 kts | 101° |
| 2026-04-16 13:12 | 51.46752 | -0.45139 | 93 ft | 12 kts | 92° |
| 2026-04-16 13:12 | 51.46745 | -0.44996 | 92 ft | 13 kts | 96° |
| 2026-04-16 13:13 | 51.46744 | -0.44853 | 91 ft | 13 kts | 83° |
| 2026-04-16 13:13 | 51.46753 | -0.44712 | 90 ft | 13 kts | 85° |
| 2026-04-16 13:13 | 51.46757 | -0.44638 | 92 ft | 1 kts | 87° |
| 2026-04-16 13:13 | 51.46757 | -0.44616 | 92 ft | 3 kts | 89° |
| 2026-04-16 13:14 | 51.46757 | -0.44560 | 89 ft | 7 kts | 89° |
| 2026-04-16 13:14 | 51.46752 | -0.44447 | 86 ft | 13 kts | 92° |
| 2026-04-16 13:14 | 51.46748 | -0.44288 | 84 ft | 15 kts | 87° |
| 2026-04-16 13:14 | 51.46761 | -0.44118 | 87 ft | 16 kts | 68° |
| 2026-04-16 13:15 | 51.46839 | -0.44054 | 90 ft | 12 kts | 358° |
| 2026-04-16 13:15 | 51.46923 | -0.44055 | 102 ft | 12 kts | 358° |
| 2026-04-16 13:15 | 51.46977 | -0.44058 | 103 ft | 12 kts | 358° |
| 2026-04-16 13:15 | 51.47020 | -0.44093 | 102 ft | 2 kts | 282° |
| 2026-04-16 13:16 | 51.47021 | -0.44119 | 103 ft | 3 kts | 272° |
| 2026-04-16 13:16 | 51.47021 | -0.44169 | 103 ft | 6 kts | 267° |
| 2026-04-16 13:16 | 51.47022 | -0.44203 | 103 ft | 3 kts | 270° |
| 2026-04-16 13:16 | 51.47021 | -0.44216 | 102 ft | 0 kts | 269° |